createdAt,value
2018-12-08T08:31:28.480Z,8.40
2018-12-08T08:33:56.317Z,8.30
2018-12-08T08:36:24.025Z,8.40
2018-12-08T08:38:51.701Z,8.20
2018-12-08T08:41:19.392Z,8.30
2018-12-08T08:43:47.365Z,8.30
2018-12-08T08:46:15.015Z,8.40
2018-12-08T08:48:42.697Z,8.50
2018-12-08T08:51:10.411Z,8.30
2018-12-08T08:53:38.153Z,8.20
2018-12-08T08:56:05.850Z,8.20
2018-12-08T08:58:33.554Z,8.20
2018-12-08T09:01:02.261Z,8.20
2018-12-08T09:03:29.981Z,8.30
2018-12-08T09:05:57.649Z,8.20
2018-12-08T09:08:25.769Z,8.20
2018-12-08T09:10:53.725Z,7.90
2018-12-08T09:13:21.345Z,8.00
2018-12-08T09:15:49.929Z,8.00
2018-12-08T09:18:17.686Z,8.20
2018-12-08T09:20:45.424Z,7.90
2018-12-08T09:23:13.129Z,7.90
2018-12-08T09:25:40.781Z,8.00
2018-12-08T09:28:08.737Z,8.00
2018-12-08T09:30:36.437Z,8.10
2018-12-08T09:33:04.097Z,8.10
2018-12-08T09:38:04.311Z,8.40
2018-12-08T09:40:31.993Z,8.40
2018-12-08T09:42:59.626Z,8.40
2018-12-08T09:45:27.333Z,8.40
2018-12-08T09:47:55.018Z,8.40
2018-12-08T09:50:22.973Z,8.20
2018-12-08T09:53:17.079Z,8.40
2018-12-08T09:55:44.765Z,8.30
2018-12-08T09:58:12.570Z,8.20
2018-12-08T10:00:40.633Z,8.30
2018-12-08T10:03:08.401Z,7.80
2018-12-08T10:05:36.141Z,8.30
2018-12-08T10:08:03.992Z,8.40
2018-12-08T10:10:31.636Z,8.30
2018-12-08T10:12:59.497Z,8.20
2018-12-08T10:15:28.159Z,8.50
2018-12-08T10:17:55.947Z,8.20
2018-12-08T10:20:23.870Z,8.30
2018-12-08T10:22:51.538Z,8.60
2018-12-08T10:25:19.199Z,8.30
2018-12-08T10:27:46.906Z,8.40
2018-12-08T10:30:14.758Z,8.20
2018-12-08T10:32:42.738Z,8.10
2018-12-08T10:35:11.633Z,8.20
2018-12-08T10:37:39.845Z,8.30
2018-12-08T10:40:09.151Z,8.30
2018-12-08T10:42:36.738Z,8.70
2018-12-08T10:45:06.661Z,9.00
2018-12-08T10:47:34.249Z,9.30
2018-12-08T10:50:01.952Z,9.00
2018-12-08T10:52:29.709Z,9.00
2018-12-08T10:54:57.526Z,9.00
2018-12-08T10:57:25.660Z,8.80
2018-12-08T10:59:53.409Z,9.00
2018-12-08T11:02:26.690Z,9.00
2018-12-08T11:04:54.374Z,8.80
2018-12-08T11:07:22.009Z,8.90
2018-12-08T11:09:49.663Z,9.00
2018-12-08T11:12:17.386Z,9.00
2018-12-08T11:14:45.070Z,8.70
2018-12-08T11:17:12.813Z,8.80
2018-12-08T11:19:40.605Z,8.50
2018-12-08T11:22:08.393Z,8.80
2018-12-08T11:24:36.054Z,8.80
2018-12-08T11:27:03.785Z,8.70
2018-12-08T11:29:31.480Z,8.50
2018-12-08T11:31:59.245Z,8.60
2018-12-08T11:34:27.001Z,8.50
2018-12-08T11:36:54.702Z,8.60
2018-12-08T11:39:22.408Z,8.60
2018-12-08T11:41:50.302Z,8.50
2018-12-08T11:44:18.381Z,8.70
2018-12-08T11:46:46.339Z,8.60
2018-12-08T11:49:13.965Z,8.40
2018-12-08T11:51:41.644Z,8.10
2018-12-08T11:54:09.366Z,8.60
2018-12-08T11:56:37.141Z,8.50
2018-12-08T11:59:04.879Z,8.50
2018-12-08T12:01:32.530Z,8.60
2018-12-08T12:04:00.229Z,8.70
2018-12-08T12:06:28.169Z,8.30
2018-12-08T12:08:55.833Z,8.60
2018-12-08T12:11:23.625Z,8.50
2018-12-08T12:13:51.281Z,8.40
2018-12-08T12:16:19.464Z,8.50
2018-12-08T12:18:47.120Z,8.50
2018-12-08T12:21:14.929Z,8.50
2018-12-08T12:23:42.608Z,8.60
2018-12-08T12:26:10.341Z,8.50
2018-12-08T12:28:38.059Z,8.60
2018-12-08T12:31:05.766Z,8.30
2018-12-08T12:33:36.349Z,8.70
2018-12-08T12:36:04.222Z,8.60
2018-12-08T12:38:31.905Z,8.20
2018-12-08T12:40:59.682Z,8.50
2018-12-08T12:43:27.373Z,8.50
2018-12-08T12:45:55.105Z,8.70
2018-12-08T12:48:22.969Z,8.30
2018-12-08T12:50:50.617Z,8.40
2018-12-08T12:53:20.413Z,8.90
2018-12-08T12:55:48.097Z,8.80
2018-12-08T12:58:15.834Z,8.70
2018-12-08T13:00:43.581Z,8.80
2018-12-08T13:03:11.232Z,9.00
2018-12-08T13:05:38.981Z,8.80
2018-12-08T13:08:06.797Z,8.90
2018-12-08T13:10:34.515Z,8.70
2018-12-08T13:13:02.250Z,8.90
2018-12-08T13:15:29.866Z,8.90
2018-12-08T13:17:57.557Z,9.10
2018-12-08T13:20:25.436Z,9.00
2018-12-08T13:22:53.324Z,8.90
2018-12-08T13:25:23.789Z,9.00
2018-12-08T13:27:51.454Z,8.90
2018-12-08T13:30:19.346Z,8.90
2018-12-08T13:32:47.126Z,9.00
2018-12-08T13:35:56.849Z,8.80
2018-12-08T13:38:24.594Z,9.20
2018-12-08T13:40:52.436Z,8.70
2018-12-08T13:43:20.204Z,8.90
2018-12-08T13:45:47.985Z,8.60
2018-12-08T13:48:17.200Z,8.80
2018-12-08T13:50:44.982Z,9.00
2018-12-08T13:53:12.723Z,8.70
2018-12-08T13:55:40.640Z,8.50
2018-12-08T13:58:08.383Z,8.80
2018-12-08T14:00:36.049Z,8.80
2018-12-08T14:03:03.873Z,8.40
2018-12-08T14:05:31.665Z,8.50
2018-12-08T14:07:59.412Z,8.90
2018-12-08T14:10:26.962Z,8.90
2018-12-08T14:12:54.898Z,8.60
2018-12-08T14:15:22.522Z,8.80
2018-12-08T14:17:50.230Z,8.90
2018-12-08T14:20:29.409Z,8.80
2018-12-08T14:22:57.017Z,8.90
2018-12-08T14:25:24.745Z,8.80
2018-12-08T14:27:52.517Z,9.00
2018-12-08T14:30:20.174Z,9.10
2018-12-08T14:32:47.822Z,8.90
2018-12-08T14:35:15.493Z,8.90
2018-12-08T14:37:43.269Z,8.90
2018-12-08T14:40:11.085Z,9.00
2018-12-08T14:42:38.769Z,9.00
2018-12-08T14:45:09.725Z,8.90
2018-12-08T14:47:37.481Z,9.00
2018-12-08T14:50:07.524Z,9.20
2018-12-08T14:52:35.208Z,9.00
2018-12-08T14:55:03.274Z,9.10
2018-12-08T14:57:31.106Z,9.10
2018-12-08T14:59:58.778Z,9.20
2018-12-08T15:02:26.545Z,9.10
2018-12-08T15:04:54.203Z,9.20
2018-12-08T15:07:21.924Z,9.20
2018-12-08T15:09:49.597Z,8.80
2018-12-08T15:12:17.322Z,9.30
2018-12-08T15:14:45.043Z,8.80
2018-12-08T15:17:12.713Z,9.40
2018-12-08T15:19:40.413Z,9.40
2018-12-08T15:22:08.122Z,8.90
2018-12-08T15:24:35.701Z,9.30
2018-12-08T15:27:03.405Z,9.50
2018-12-08T15:29:31.182Z,9.40
2018-12-08T15:31:58.950Z,9.70
2018-12-08T15:34:26.709Z,9.80
2018-12-08T15:36:54.362Z,9.50
2018-12-08T15:39:22.053Z,9.60
2018-12-08T15:41:49.654Z,9.30
2018-12-08T15:44:17.340Z,9.10
2018-12-08T15:46:45.040Z,9.50
2018-12-08T15:49:12.752Z,9.60
2018-12-08T15:51:41.157Z,9.80
2018-12-08T15:54:08.869Z,9.70
2018-12-08T15:56:36.514Z,9.40
2018-12-08T15:59:04.341Z,9.60
2018-12-08T16:01:32.052Z,9.70
2018-12-08T16:03:59.774Z,9.70
2018-12-08T16:06:27.420Z,9.50
2018-12-08T16:08:55.157Z,9.80
2018-12-08T16:11:22.867Z,9.70
2018-12-08T16:13:50.594Z,9.50
2018-12-08T16:16:18.337Z,9.70
2018-12-08T16:18:46.101Z,9.60
2018-12-08T16:21:13.809Z,9.60
2018-12-08T16:23:41.629Z,9.60
2018-12-08T16:26:09.485Z,9.70
2018-12-08T16:28:37.105Z,9.60
2018-12-08T16:31:04.937Z,9.50
2018-12-08T16:33:32.606Z,9.50
2018-12-08T16:36:00.359Z,9.40
2018-12-08T16:38:28.068Z,9.40
2018-12-08T16:40:55.753Z,9.40
2018-12-08T16:43:23.576Z,9.30
2018-12-08T16:45:51.173Z,9.40
2018-12-08T16:48:18.887Z,9.40
2018-12-08T16:50:46.913Z,9.10
2018-12-08T16:53:14.594Z,9.30
2018-12-08T16:55:42.205Z,9.30
2018-12-08T16:58:09.847Z,9.30
2018-12-08T17:00:37.677Z,9.30
2018-12-08T17:03:05.232Z,9.40
2018-12-08T17:05:32.947Z,9.20
2018-12-08T17:08:00.717Z,9.40
2018-12-08T17:10:28.585Z,9.60
2018-12-08T17:12:56.230Z,9.10
2018-12-08T17:15:23.897Z,9.30
2018-12-08T17:17:51.638Z,9.20
2018-12-08T17:20:19.369Z,9.30
2018-12-08T17:22:46.976Z,9.50
2018-12-08T17:25:14.586Z,9.40
2018-12-08T17:27:42.302Z,9.30
2018-12-08T17:30:10.319Z,9.40
2018-12-08T17:32:38.173Z,9.40
2018-12-08T17:35:06.087Z,9.50
2018-12-08T17:37:33.678Z,9.60
2018-12-08T17:40:01.365Z,9.40
2018-12-08T17:42:29.090Z,9.70
2018-12-08T17:44:57.197Z,9.70
2018-12-08T17:47:25.037Z,9.60
2018-12-08T17:49:52.729Z,9.70
2018-12-08T17:52:20.362Z,9.60
2018-12-08T17:54:49.832Z,9.70
2018-12-08T17:57:17.920Z,9.60
2018-12-08T17:59:45.569Z,9.60
2018-12-08T18:02:13.224Z,9.50
2018-12-08T18:04:41.140Z,9.70
2018-12-08T18:07:09.266Z,9.50
2018-12-08T18:09:37.101Z,9.40
2018-12-08T18:12:05.142Z,9.50
2018-12-08T18:14:32.857Z,9.20
2018-12-08T18:17:00.969Z,9.40
2018-12-08T18:19:28.590Z,9.30
2018-12-08T18:21:56.424Z,9.30
2018-12-08T18:24:24.181Z,9.20
2018-12-08T18:26:52.030Z,9.20
2018-12-08T18:29:19.730Z,9.20
2018-12-08T18:31:47.726Z,9.10
2018-12-08T18:34:15.422Z,9.00
2018-12-08T18:36:43.129Z,9.10
2018-12-08T18:39:10.871Z,8.60
2018-12-08T18:41:38.533Z,8.90
2018-12-08T18:44:06.320Z,8.80
2018-12-08T18:46:34.021Z,9.00
2018-12-08T18:49:01.761Z,9.20
2018-12-08T18:51:29.457Z,8.80
2018-12-08T18:53:57.257Z,8.80
2018-12-08T18:56:24.975Z,8.90
2018-12-08T18:58:52.766Z,8.90
2018-12-08T19:01:20.585Z,8.80
2018-12-08T19:03:48.535Z,8.70
2018-12-08T19:06:16.269Z,8.60
2018-12-08T19:08:43.978Z,8.80
2018-12-08T19:11:11.705Z,8.80
2018-12-08T19:13:39.477Z,8.80
2018-12-08T19:16:07.302Z,8.50
2018-12-08T19:18:35.051Z,8.60
2018-12-08T19:21:02.726Z,8.80
2018-12-08T19:23:30.309Z,8.70
2018-12-08T19:25:58.013Z,8.80
2018-12-08T19:28:28.534Z,8.60
2018-12-08T19:30:56.250Z,8.60
2018-12-08T19:33:24.623Z,8.80
2018-12-08T19:35:52.280Z,8.60
2018-12-08T19:38:20.077Z,8.60
2018-12-08T19:40:48.477Z,8.50
2018-12-08T19:43:18.241Z,8.60
2018-12-08T19:45:46.227Z,8.60
2018-12-08T19:48:14.038Z,8.70
2018-12-08T19:50:41.939Z,8.80
2018-12-08T19:53:09.567Z,8.50
2018-12-08T19:55:37.605Z,8.80
2018-12-08T19:58:05.504Z,8.50
2018-12-08T20:00:33.314Z,8.50
2018-12-08T20:03:01.558Z,8.60
2018-12-08T20:05:29.296Z,8.50
2018-12-08T20:07:57.275Z,8.60
2018-12-08T20:10:25.062Z,8.80
2018-12-08T20:12:53.320Z,8.60
2018-12-08T20:15:21.154Z,8.00
2018-12-08T20:17:49.525Z,8.80
2018-12-08T20:20:17.291Z,8.60
2018-12-08T20:22:45.214Z,8.60
2018-12-08T20:25:13.250Z,8.60
2018-12-08T20:27:40.877Z,8.60
2018-12-08T20:30:08.790Z,8.60
2018-12-08T20:32:36.494Z,8.70
2018-12-08T20:35:05.106Z,8.40
2018-12-08T20:37:33.179Z,8.60
2018-12-08T20:40:01.359Z,8.60
2018-12-08T20:42:29.089Z,8.20
2018-12-08T20:44:57.370Z,8.70
2018-12-08T20:47:25.141Z,8.60
2018-12-08T20:49:52.833Z,8.40
2018-12-08T20:52:20.824Z,8.80
2018-12-08T20:54:48.445Z,8.60
2018-12-08T20:57:16.022Z,8.80
2018-12-08T20:59:44.030Z,8.80
2018-12-08T21:02:11.825Z,9.40
2018-12-08T21:04:41.025Z,8.80
2018-12-08T21:07:09.223Z,9.00
2018-12-08T21:09:36.913Z,8.70
2018-12-08T21:12:06.594Z,8.70
2018-12-08T21:14:34.549Z,8.80
2018-12-08T21:17:02.469Z,8.80
2018-12-08T21:19:30.049Z,8.70
2018-12-08T21:21:57.934Z,8.40
2018-12-08T21:24:26.034Z,8.80
2018-12-08T21:26:53.887Z,9.00
2018-12-08T21:29:21.873Z,8.90
2018-12-08T21:31:49.806Z,9.00
2018-12-08T21:34:17.673Z,8.80
2018-12-08T21:36:45.645Z,8.90
2018-12-08T21:39:13.369Z,8.80
2018-12-08T21:41:41.586Z,8.80
2018-12-08T21:44:09.278Z,9.00
2018-12-08T21:46:37.334Z,9.20
2018-12-08T21:49:05.123Z,9.10
2018-12-08T21:51:32.952Z,9.20
2018-12-08T21:54:00.693Z,9.10
2018-12-08T21:56:28.398Z,9.40
2018-12-08T21:58:56.073Z,9.20
2018-12-08T22:01:23.982Z,9.40
2018-12-08T22:03:51.725Z,9.30
2018-12-08T22:06:19.460Z,9.50
2018-12-08T22:08:47.138Z,9.30
2018-12-08T22:11:15.013Z,9.30
2018-12-08T22:13:42.677Z,9.20
2018-12-08T22:16:10.369Z,9.10
2018-12-08T22:18:38.138Z,9.30
2018-12-08T22:21:05.825Z,9.20
2018-12-08T22:23:33.617Z,9.10
2018-12-08T22:26:01.708Z,9.10
2018-12-08T22:28:29.445Z,9.10
2018-12-08T22:30:57.209Z,8.70
2018-12-08T22:33:25.039Z,9.30
2018-12-08T22:35:52.753Z,9.00
2018-12-08T22:38:20.429Z,9.20
2018-12-08T22:40:48.354Z,9.00
2018-12-08T22:43:16.085Z,9.20
2018-12-08T22:45:43.953Z,9.30
2018-12-08T22:48:11.665Z,9.30
2018-12-08T22:50:39.597Z,8.70
2018-12-08T22:53:07.260Z,9.40
2018-12-08T22:55:35.045Z,9.20
2018-12-08T22:58:02.822Z,9.10
2018-12-08T23:00:44.623Z,9.10
2018-12-08T23:03:12.477Z,9.10
2018-12-08T23:05:40.428Z,9.10
2018-12-08T23:08:08.090Z,9.30
2018-12-08T23:10:35.781Z,9.10
2018-12-08T23:13:03.951Z,9.30
2018-12-08T23:15:32.100Z,9.20
2018-12-08T23:17:59.998Z,9.20
2018-12-08T23:20:27.829Z,9.30
2018-12-08T23:22:55.609Z,9.00
2018-12-08T23:25:23.345Z,9.20
2018-12-08T23:27:51.025Z,9.40
2018-12-08T23:30:18.811Z,9.00
2018-12-08T23:32:46.560Z,9.10
2018-12-08T23:35:14.243Z,9.30
2018-12-08T23:37:42.277Z,9.20
2018-12-08T23:40:09.954Z,9.30
2018-12-08T23:42:37.701Z,9.40
2018-12-08T23:45:05.711Z,9.40
2018-12-08T23:47:33.446Z,9.40
2018-12-08T23:50:01.125Z,9.30
2018-12-08T23:52:28.757Z,9.30
2018-12-08T23:54:56.717Z,8.90
2018-12-08T23:57:24.541Z,9.50
2018-12-08T23:59:52.198Z,9.50
